Flight Track Log - Related Links

Times and Time Zones

All times are in EST time to prevent confusion due to time zone crossing. See the EJM90 flight status page for this flight to view local times or setup timezone preferences in your user account.

Time Position Orientation Groundspeed Altitude Reporting Facility
EST Latitude Longitude Course Direction KTS MPH feet Rate Location/Type
Thu 01:41:56 PM 32.1073 -110.9290 135° Southeast 181 208 2,900  Level FlightAware ADS-B (VRMM / MLE)
Thu 01:42:16 PM 32.0952 -110.9146 135° Southeast 188 216 4,000 3,538 Climbing FlightAware ADS-B (VRMM / MLE)
Thu 01:42:35 PM 32.0821 -110.8994 135° Southeast 203 234 5,200 3,714 Climbing FlightAware ADS-B (VRMM / MLE)
Thu 01:42:58 PM 32.0674 -110.8822 135° Southeast 219 252 6,600 3,261 Climbing FlightAware ADS-B
Thu 01:43:21 PM 32.0493 -110.8608 135° Southeast 247 284 7,700 2,813 Climbing FlightAware ADS-B
Thu 01:43:30 PM 32.0426 -110.8514 130° Southeast 253 291 8,100 2,625 Climbing FlightAware ADS-B (VRMM / MLE)
Thu 01:43:37 PM 32.0379 -110.8423 121° Southeast 270 311 8,400 1,895 Climbing FlightAware ADS-B
Thu 01:43:49 PM 32.0324 -110.8242 110° East 286 329 8,700 2,483 Climbing FlightAware ADS-B (VRMM / MLE)
Thu 01:44:06 PM 32.0298 -110.7996 97° East 295 339 9,600 3,568 Climbing FlightAware ADS-B
Thu 01:44:26 PM 32.0299 -110.7654 90° East 304 350 10,900 3,600 Climbing FlightAware ADS-B (VRMM / MLE)
Thu 01:44:36 PM 32.0284 -110.7492 96° East 312 359 11,400 2,634 Climbing FlightAware ADS-B
Thu 01:45:07 PM 32.0125 -110.6979 110° East 345 397 12,700 2,866 Climbing FlightAware ADS-B (VRMM / MLE)
Thu 01:45:43 PM 31.9900 -110.6324 112° Southeast 358 412 14,600 3,364 Climbing FlightAware ADS-B (VRMM / MLE)
Thu 01:46:13 PM 31.9703 -110.5776 113° Southeast 368 423 16,400 3,288 Climbing FlightAware ADS-B
Thu 01:46:56 PM 31.9409 -110.4963 113° Southeast 377 434 18,600 3,143 Climbing FlightAware ADS-B (VRMM / MLE)
Thu 01:47:16 PM 31.9270 -110.4588 114° Southeast 381 438 19,700 2,962 Climbing FlightAware ADS-B (VRMM / MLE)
Thu 01:48:15 PM 31.8886 -110.3429 111° Southeast 395 455 22,500 2,883 Climbing FlightAware ADS-B
Thu 01:48:33 PM 31.8809 -110.3045 103° East 399 459 23,400 2,571 Climbing FlightAware ADS-B
Thu 01:49:04 PM 31.8675 -110.2383 103° East 406 467 24,600 2,432 Climbing FlightAware ADS-B (VRMM / MLE)
Thu 01:49:47 PM 31.8493 -110.1457 103° East 412 474 26,400 2,471 Climbing FlightAware ADS-B (VRMM / MLE)
Thu 01:50:29 PM 31.8466 -110.0519 92° East 417 480 28,100 1,973 Climbing FlightAware ADS-B
Thu 01:51:00 PM 31.8494 -109.9805 87° East 435 501 28,800 1,500 Climbing FlightAware ADS-B (VRMM / MLE)
Thu 01:51:33 PM 31.8528 -109.9017 87° East 444 511 29,700 1,705 Climbing FlightAware ADS-B
Thu 01:52:28 PM 31.8581 -109.7664 87° East 455 524 31,300 1,696 Climbing FlightAware ADS-B (VRMM / MLE)
Thu 01:53:51 PM 31.8664 -109.5587 87° East 465 535 33,600 1,564 Climbing FlightAware ADS-B (VRMM / MLE)
Thu 01:55:13 PM 31.8719 -109.3758 87° East 464 534 35,600 1,531 Climbing Albuquerque Center
Thu 01:56:16 PM 31.8783 -109.2272 87° East 462 532 37,300 1,728 Climbing Albuquerque Center
Thu 01:57:18 PM 31.8839 -109.0503 88° East 456 525 39,200 1,597 Climbing Albuquerque Center
Thu 01:58:20 PM 31.8886 -108.9086 88° East 444 511 40,600 871 Climbing Albuquerque Center
Thu 01:59:22 PM 31.8936 -108.7683 88° East 435 501 41,000 194 Climbing Albuquerque Center
Thu 02:00:24 PM 31.8986 -108.6211 88° East 444 511 41,000  Level Albuquerque Center
Thu 02:01:26 PM 31.9028 -108.4672 88° East 464 534 41,000  Level Albuquerque Center
Thu 02:02:28 PM 31.9089 -108.3036 87° East 475 547 41,000  Level Albuquerque Center
Thu 02:03:30 PM 31.9131 -108.1475 88° East 479 551 41,000  Level Albuquerque Center
Thu 02:04:32 PM 31.9183 -107.9611 88° East 478 550 41,000  Level Albuquerque Center
Thu 02:05:34 PM 31.9217 -107.8044 89° East 480 552 41,000 -48 Level Albuquerque Center
Thu 02:06:36 PM 31.9261 -107.6489 88° East 479 551 40,900  Descending Albuquerque Center
Thu 02:07:39 PM 31.9306 -107.4947 88° East 477 549 41,000 48 Climbing Albuquerque Center
Thu 02:08:41 PM 31.9339 -107.3406 88° East 476 548 41,000  Level Albuquerque Center
Thu 02:09:43 PM 31.9381 -107.1572 88° East 473 544 41,000  Level Albuquerque Center
Thu 02:10:45 PM 31.9417 -107.0036 88° East 474 545 41,000 -48 Level Albuquerque Center
Thu 02:11:47 PM 31.9442 -106.8483 89° East 477 549 40,900  Descending Albuquerque Center
Thu 02:12:49 PM 31.9458 -106.6936 89° East 476 548 41,000 48 Climbing Albuquerque Center
Thu 02:13:51 PM 31.9486 -106.5339 89° East 486 559 41,000  Level Albuquerque Center
Thu 02:14:53 PM 31.9528 -106.3483 88° East 480 552 41,000  Level Albuquerque Center
Thu 02:15:55 PM 31.9597 -106.1917 87° East 479 551 41,000  Level Albuquerque Center
Thu 02:16:57 PM 31.9775 -106.0353 82° East 482 555 41,000  Level Albuquerque Center
Thu 02:17:59 PM 31.9936 -105.8800 83° East 485 558 41,000  Level Albuquerque Center
Thu 02:19:01 PM 32.0100 -105.7222 83° East 485 558 41,000  Level Albuquerque Center
Thu 02:20:04 PM 32.0308 -105.5328 83° East 485 558 41,000  Level Albuquerque Center
Thu 02:21:06 PM 32.0467 -105.3750 83° East 485 558 41,000  Level Albuquerque Center
Thu 02:22:08 PM 32.0639 -105.2167 83° East 486 559 41,000  Level Albuquerque Center
Thu 02:23:10 PM 32.0800 -105.0592 83° East 484 557 41,000  Level Albuquerque Center
Thu 02:24:12 PM 32.0961 -104.9000 83° East 486 559 41,000  Level Albuquerque Center
Thu 02:25:14 PM 32.1117 -104.7397 83° East 489 563 41,000  Level Albuquerque Center
Thu 02:26:16 PM 32.1289 -104.5461 84° East 493 567 41,000  Level Albuquerque Center
Thu 02:27:18 PM 32.1439 -104.3850 84° East 493 567 41,000  Level Albuquerque Center
Thu 02:28:20 PM 32.1606 -104.2264 83° East 490 564 41,000  Level Albuquerque Center
Thu 02:29:22 PM 32.1747 -104.0656 84° East 491 565 41,000  Level Albuquerque Center
Thu 02:30:24 PM 32.1897 -103.8975 84° East 491 565 41,000  Level Albuquerque Center
Thu 02:31:26 PM 32.2044 -103.7378 84° East 492 566 41,000  Level Albuquerque Center
Thu 02:32:28 PM 32.2208 -103.5789 83° East 491 565 41,000  Level Albuquerque Center
Thu 02:33:30 PM 32.2342 -103.4189 84° East 492 566 41,000  Level Albuquerque Center
Thu 02:34:32 PM 32.2506 -103.2278 84° East 490 564 41,000  Level Albuquerque Center
Thu 02:36:29 PM 32.2575 -102.9397 88° East 498 573 41,000  Level Houston Center
Thu 02:37:31 PM 32.2536 -102.7447 91° East 496 571 41,000  Level Houston Center
Thu 02:38:32 PM 32.2519 -102.5842 91° East 496 571 41,000  Level Fort Worth Center
Thu 02:39:34 PM 32.2467 -102.4244 92° East 496 571 41,000  Level Fort Worth Center
Thu 02:40:36 PM 32.2436 -102.2642 91° East 497 572 41,000  Level Fort Worth Center
Thu 02:41:38 PM 32.2389 -102.0706 92° East 498 573 41,000  Level Fort Worth Center
Thu 02:42:41 PM 32.2353 -101.9078 91° East 500 575 41,000  Level Fort Worth Center
Thu 02:43:43 PM 32.2311 -101.7458 92° East 498 573 41,000  Level Fort Worth Center
Thu 02:44:45 PM 32.2258 -101.5819 92° East 502 578 41,000  Level Fort Worth Center
Thu 02:45:47 PM 32.2222 -101.4172 91° East 505 581 41,000  Level Fort Worth Center
Thu 02:46:49 PM 32.2147 -101.2236 93° East 508 585 41,000  Level Fort Worth Center
Thu 02:47:51 PM 32.2094 -101.0564 92° East 509 586 41,000  Level Fort Worth Center
Thu 02:48:53 PM 32.2042 -100.8889 92° East 511 588 41,000  Level Fort Worth Center
Thu 02:49:55 PM 32.1981 -100.7222 92° East 510 587 41,000  Level Fort Worth Center
Thu 02:50:57 PM 32.1911 -100.5547 93° East 512 589 41,000  Level Fort Worth Center
Thu 02:52:00 PM 32.1856 -100.3525 92° East 514 592 41,000  Level Fort Worth Center
Thu 02:53:02 PM 32.1792 -100.1858 93° East 513 590 41,000  Level Fort Worth Center
Thu 02:54:04 PM 32.1725 -100.0208 93° East 510 587 41,000  Level Fort Worth Center
Thu 02:55:06 PM 32.1647 -99.8578 93° East 505 581 41,000  Level Fort Worth Center
Thu 02:56:08 PM 32.1592 -99.6942 92° East 504 580 41,000  Level Fort Worth Center
Thu 02:57:10 PM 32.1497 -99.4958 93° East 508 585 41,000  Level Fort Worth Center
Thu 03:06:36 PM 32.0718 -97.9711 94° East 508 585 41,000  Level FlightAware ADS-B
Thu 03:09:13 PM 32.0449 -97.5144 98° East 510 587 41,000  Level FlightAware ADS-B
Thu 03:09:43 PM 32.0388 -97.4102 94° East 512 589 41,000  Level FlightAware ADS-B
Thu 03:10:13 PM 32.0337 -97.3273 94° East 514 592 41,000  Level FlightAware ADS-B
Thu 03:10:43 PM 32.0286 -97.2429 94° East 514 592 41,000  Level FlightAware ADS-B
Thu 03:11:08 PM 32.0242 -97.1745 94° East 514 592 41,000  Level FlightAware ADS-B
Thu 03:11:44 PM 32.0180 -97.0759 94° East 513 590 41,000  Level FlightAware ADS-B
Thu 03:12:14 PM 32.0127 -96.9925 94° East 513 590 41,000  Level FlightAware ADS-B
Thu 03:12:44 PM 32.0074 -96.9099 94° East 513 590 41,000  Level FlightAware ADS-B
Thu 03:13:13 PM 32.0020 -96.8268 94° East 514 592 41,000  Level FlightAware ADS-B
Thu 03:13:44 PM 31.9963 -96.7425 94° East 514 592 41,000  Level FlightAware ADS-B
Thu 03:14:14 PM 31.9907 -96.6598 95° East 514 592 41,000  Level FlightAware ADS-B
Thu 03:14:43 PM 31.9847 -96.5755 95° East 516 594 41,000  Level FlightAware ADS-B
Thu 03:15:12 PM 31.9790 -96.4952 95° East 515 593 41,000  Level FlightAware ADS-B
Thu 03:15:43 PM 31.9730 -96.4110 95° East 515 593 41,000  Level FlightAware ADS-B
Thu 03:16:13 PM 31.9670 -96.3252 95° East 515 593 41,000  Level FlightAware ADS-B
Thu 03:16:43 PM 31.9612 -96.2407 95° East 517 595 41,000  Level FlightAware ADS-B
Thu 03:17:14 PM 31.9554 -96.1573 95° East 517 595 41,000  Level FlightAware ADS-B
Thu 03:17:43 PM 31.9494 -96.0733 95° East 518 596 41,000  Level FlightAware ADS-B
Thu 03:18:14 PM 31.9435 -95.9922 95° East 518 596 41,000  Level FlightAware ADS-B
Thu 03:18:44 PM 31.9374 -95.9075 95° East 515 593 41,000  Level FlightAware ADS-B
Thu 03:19:13 PM 31.9310 -95.8223 95° East 515 593 41,000  Level FlightAware ADS-B
Thu 03:19:43 PM 31.9249 -95.7385 95° East 520 598 41,000  Level FlightAware ADS-B
Thu 03:20:29 PM 31.9151 -95.6085 95° East 522 601 41,000  Level FlightAware ADS-B
Thu 03:20:59 PM 31.9090 -95.5244 95° East 522 601 41,000  Level FlightAware ADS-B
Thu 03:21:29 PM 31.9026 -95.4393 95° East 522 601 41,000  Level FlightAware ADS-B
Thu 03:22:00 PM 31.8962 -95.3553 95° East 523 602 41,000  Level FlightAware ADS-B
Thu 03:22:29 PM 31.8895 -95.2732 95° East 524 603 41,000  Level FlightAware ADS-B
Thu 03:22:59 PM 31.8823 -95.1856 96° East 523 602 41,000  Level FlightAware ADS-B
Thu 03:23:29 PM 31.8753 -95.1011 96° East 523 602 41,000  Level FlightAware ADS-B
Thu 03:23:53 PM 31.8700 -95.0391 96° East 525 604 41,000  Level FlightAware ADS-B
Thu 03:24:09 PM 31.8639 -94.9873 98° East 525 604 41,000  Level FlightAware ADS-B
Thu 03:24:28 PM 31.8563 -94.9380 100° East 525 604 41,000  Level FlightAware ADS-B
Thu 03:24:57 PM 31.8412 -94.8551 102° East 524 603 41,000  Level FlightAware ADS-B
Thu 03:25:13 PM 31.8341 -94.8117 101° East 524 603 41,000  Level FlightAware ADS-B
Thu 03:25:30 PM 31.8280 -94.7648 99° East 525 604 41,000  Level FlightAware ADS-B
Thu 03:25:51 PM 31.8219 -94.7024 97° East 526 605 41,000  Level FlightAware ADS-B
Thu 03:26:22 PM 31.8151 -94.6172 95° East 525 604 41,000  Level FlightAware ADS-B
Thu 03:26:29 PM 31.8132 -94.5941 96° East 526 605 41,000  Level FlightAware ADS-B
Thu 03:26:52 PM 31.8079 -94.5322 96° East 526 605 41,000  Level FlightAware ADS-B
Thu 03:27:02 PM 31.8057 -94.5048 95° East 526 605 41,000  Level FlightAware ADS-B
Thu 03:27:22 PM 31.8009 -94.4475 96° East 525 604 41,000  Level FlightAware ADS-B
Thu 03:27:42 PM 31.7974 -94.4065 96° East 523 602 41,000  Level FlightAware ADS-B
Thu 03:27:51 PM 31.7938 -94.3627 95° East 523 602 41,000  Level FlightAware ADS-B
Thu 03:28:22 PM 31.7866 -94.2778 96° East 524 603 41,000  Level FlightAware ADS-B
Thu 03:28:51 PM 31.7795 -94.1939 96° East 525 604 41,000  Level FlightAware ADS-B
Thu 03:29:20 PM 31.7729 -94.1170 96° East 524 603 41,000  Level FlightAware ADS-B
Thu 03:29:32 PM 31.7696 -94.0790 96° East 524 603 41,000  Level FlightAware ADS-B
Thu 03:29:51 PM 31.7651 -94.0248 96° East 523 602 41,000  Level FlightAware ADS-B
Thu 03:30:12 PM 31.7600 -93.9671 96° East 523 602 41,000  Level FlightAware ADS-B
Thu 03:30:21 PM 31.7576 -93.9391 96° East 524 603 41,000  Level FlightAware ADS-B
Thu 03:30:51 PM 31.7506 -93.8568 96° East 525 604 41,000  Level FlightAware ADS-B
Thu 03:31:21 PM 31.7427 -93.7695 96° East 527 606 41,000  Level FlightAware ADS-B
Thu 03:31:42 PM 31.7374 -93.7112 96° East 526 605 41,000  Level FlightAware ADS-B
Thu 03:31:47 PM 31.7359 -93.6954 96° East 526 605 41,000  Level FlightAware ADS-B
Thu 03:32:12 PM 31.7296 -93.6254 96° East 527 606 41,000  Level FlightAware ADS-B
Thu 03:32:22 PM 31.7272 -93.5992 96° East 526 605 41,000  Level FlightAware ADS-B
Thu 03:32:49 PM 31.7206 -93.5229 96° East 524 603 41,000  Level FlightAware ADS-B
Thu 03:32:52 PM 31.7197 -93.5132 96° East 524 603 41,000  Level FlightAware ADS-B
Thu 03:33:19 PM 31.7131 -93.4372 96° East 523 602 41,000  Level FlightAware ADS-B
Thu 03:33:33 PM 31.7113 -93.4173 96° East 524 603 41,000  Level FlightAware ADS-B
Thu 03:34:27 PM 31.6952 -93.2449 96° East 524 603 41,000  Level FlightAware ADS-B
Thu 03:35:28 PM 31.6825 -93.0992 96° East 523 602 41,000  Level Fort Worth Center
Thu 03:41:12 PM 31.5887 -92.1459 96° East 520 598 41,000  Level FlightAware ADS-B
Thu 03:41:44 PM 31.5772 -92.0417 96° East 518 596 41,000  Level Houston Center
Thu 03:43:45 PM 31.5431 -91.7097 97° East 520 598 41,000  Level Fort Worth Center
Thu 03:44:50 PM 31.5208 -91.5119 97° East 514 592 41,000  Level Houston Center
Thu 03:45:52 PM 31.5039 -91.3464 97° East 513 590 41,000  Level Houston Center
Thu 03:46:55 PM 31.4853 -91.1811 97° East 513 590 41,000  Level Houston Center
Thu 03:48:56 PM 31.4508 -90.8506 98° East 509 586 41,000 -32 Level Fort Worth Center
Thu 03:50:01 PM 31.4297 -90.6647 98° East 512 589 40,900  Descending Houston Center
Thu 03:51:03 PM 31.4103 -90.4986 98° East 514 592 41,000 48 Climbing Houston Center
Thu 03:52:06 PM 31.3917 -90.3331 97° East 514 592 41,000  Level Houston Center
Thu 03:53:08 PM 31.3719 -90.1686 98° East 512 589 41,000  Level Houston Center
Thu 03:54:10 PM 31.3519 -90.0056 98° East 507 583 41,000  Level Houston Center
Thu 03:55:12 PM 31.3300 -89.8086 97° East 508 585 41,000  Level Houston Center
Thu 03:56:14 PM 31.3092 -89.6447 98° East 510 587 41,000  Level Houston Center
Thu 03:57:16 PM 31.2897 -89.4897 98° East 507 583 41,000  Level Houston Center
Thu 03:58:18 PM 31.2692 -89.3275 98° East 505 581 41,000  Level Houston Center
Thu 03:59:20 PM 31.2489 -89.1553 98° East 506 582 41,000  Level Houston Center
Thu 04:00:23 PM 31.2281 -88.9933 99° East 505 581 41,000  Level Houston Center
Thu 04:01:25 PM 31.2050 -88.8089 98° East 504 580 41,000  Level Houston Center
Thu 04:02:27 PM 31.1839 -88.6472 99° East 504 580 41,000  Level Houston Center
Thu 04:03:29 PM 31.1619 -88.4758 98° East 502 578 41,000  Level Houston Center
Thu 04:04:31 PM 31.1397 -88.3150 99° East 503 579 41,000  Level Houston Center
Thu 04:05:33 PM 31.1172 -88.1539 99° East 503 579 41,000  Level Houston Center
Thu 04:06:35 PM 31.0956 -87.9950 99° East 498 573 41,000  Level Houston Center
Thu 04:07:37 PM 31.0711 -87.8011 98° East 506 582 41,000  Level Houston Center
Thu 04:08:40 PM 31.0483 -87.6400 99° East 500 575 41,000  Level Houston Center
Thu 04:09:42 PM 31.0256 -87.4819 100° East 496 571 41,000  Level Houston Center
Thu 04:10:34 PM 31.0089 -87.3522 98° East 503 579 41,000  Level Jacksonville Center
Thu 04:11:34 PM 30.9892 -87.1939 98° East 498 573 41,000  Level Jacksonville Center
Thu 04:12:34 PM 30.9672 -87.0378 99° East 493 567 41,000  Level Jacksonville Center
Thu 04:13:34 PM 30.9431 -86.8792 100° East 493 567 41,000  Level Jacksonville Center
Thu 04:14:34 PM 30.9333 -86.7192 94° East 488 562 41,000  Level Jacksonville Center
Thu 04:15:34 PM 30.9258 -86.5564 93° East 488 562 41,000  Level Jacksonville Center
Thu 04:16:34 PM 30.9197 -86.3964 93° East 488 562 41,000  Level Jacksonville Center
Thu 04:17:34 PM 30.9156 -86.2389 92° East 488 562 41,000  Level Jacksonville Center
Thu 04:18:34 PM 30.9114 -86.0789 92° East 494 568 41,000  Level Jacksonville Center
Thu 04:19:34 PM 30.9050 -85.9142 93° East 499 574 41,000  Level Jacksonville Center
Thu 04:20:34 PM 30.8981 -85.7589 93° East 499 574 41,000  Level Jacksonville Center
Thu 04:21:34 PM 30.8914 -85.5967 93° East 499 574 41,000  Level Jacksonville Center
Thu 04:22:34 PM 30.8861 -85.4367 92° East 499 574 41,000  Level Jacksonville Center
Thu 04:23:34 PM 30.8789 -85.2792 93° East 499 574 41,000  Level Jacksonville Center
Thu 04:24:34 PM 30.8733 -85.1169 92° East 499 574 41,000 -455 Level Jacksonville Center
Thu 04:29:56 PM 30.6781 -84.3053 92° East 492 566 38,100 -610 Descending FlightAware ADS-B (KONZ)
Thu 04:30:28 PM 30.6497 -84.2285 113° Southeast 482 555 37,400 -1,350 Descending FlightAware ADS-B (KONZ)
Thu 04:31:16 PM 30.6023 -84.1018 113° Southeast 487 560 36,300 -933 Descending FlightAware ADS-B (KONZ)
Thu 04:31:58 PM 30.5649 -84.0015 113° Southeast 487 560 36,000 -250 Descending FlightAware ADS-B (KONZ)
Thu 04:32:28 PM 30.5376 -83.9286 114° Southeast 489 563 36,000  Level FlightAware ADS-B (KONZ)
Thu 04:32:58 PM 30.5114 -83.8580 113° Southeast 488 562 36,000 -870 Level FlightAware ADS-B (KONZ)
Thu 04:33:37 PM 30.4776 -83.7673 113° Southeast 486 559 35,000 -2,000 Descending FlightAware ADS-B (KONZ)
Thu 04:34:16 PM 30.4410 -83.6701 114° Southeast 495 570 33,400 -2,444 Descending FlightAware ADS-B (KONZ)
Thu 04:34:58 PM 30.4042 -83.5734 114° Southeast 513 590 31,700 -2,538 Descending FlightAware ADS-B (KONZ)
Thu 04:35:34 PM 30.3702 -83.4842 114° Southeast 508 585 30,100 -2,375 Descending FlightAware ADS-B (KONZ)
Thu 04:36:34 PM 30.3158 -83.3403 114° Southeast 493 567 27,900 -1,550 Descending Jacksonville Center
Thu 04:37:34 PM 30.2619 -83.1956 113° Southeast 493 567 27,000 -500 Descending Jacksonville Center
Thu 04:38:34 PM 30.2058 -83.0511 114° Southeast 493 567 26,900 -321 Descending Jacksonville Center
Thu 04:43:48 PM 29.8385 -82.3898 114° Southeast 453 521 25,000 -322 Descending FlightAware ADS-B
Thu 04:44:28 PM 29.7618 -82.3514 157° South 449 517 25,000  Level FlightAware ADS-B
Thu 04:45:08 PM 29.6913 -82.3172 157° South 448 516 25,000  Level FlightAware ADS-B
Thu 04:45:48 PM 29.6089 -82.2774 157° South 448 516 25,000 -456 Level FlightAware ADS-B
Thu 04:46:27 PM 29.5383 -82.2434 157° South 448 516 24,400 -1,680 Descending FlightAware ADS-B
Thu 04:47:03 PM 29.4753 -82.2132 157° South 439 505 22,900 -2,268 Descending FlightAware ADS-B
Thu 04:47:49 PM 29.3814 -82.1682 157° South 426 490 21,300 -2,188 Descending FlightAware ADS-B
Thu 04:48:28 PM 29.3107 -82.1344 157° South 416 479 19,800 -2,308 Descending FlightAware ADS-B
Thu 04:49:07 PM 29.2417 -82.1015 157° South 410 472 18,300 -2,267 Descending FlightAware ADS-B
Thu 04:49:58 PM 29.1552 -82.0602 157° South 391 450 16,400 -2,152 Descending FlightAware ADS-B
Thu 04:50:39 PM 29.0865 -82.0275 157° South 389 448 15,000 -2,028 Descending FlightAware ADS-B
Thu 04:51:09 PM 29.0376 -82.0042 157° South 380 437 14,000 -2,123 Descending FlightAware ADS-B
Thu 04:51:44 PM 28.9813 -81.9773 157° South 373 429 12,700 -1,926 Descending FlightAware ADS-B
Thu 04:52:30 PM 28.9133 -81.9358 152° Southeast 352 405 11,400 -1,256 Descending FlightAware ADS-B
Thu 04:53:10 PM 28.8641 -81.8872 139° Southeast 349 402 10,900 -1,000 Descending FlightAware ADS-B
Thu 04:53:48 PM 28.8304 -81.8385 128° Southeast 336 387 10,100 -1,400 Descending FlightAware ADS-B
Thu 04:54:10 PM 28.8147 -81.7989 114° Southeast 330 380 9,500 -1,610 Descending FlightAware ADS-B
Thu 04:54:29 PM 28.8077 -81.7661 104° East 323 372 9,000 -1,500 Descending FlightAware ADS-B
Thu 04:54:50 PM 28.8007 -81.7327 104° East 316 364 8,500 -1,610 Descending FlightAware ADS-B
Thu 04:55:10 PM 28.7938 -81.7005 104° East 309 356 7,900 -1,650 Descending FlightAware ADS-B
Thu 04:55:30 PM 28.7866 -81.6682 104° East 308 354 7,400 -1,500 Descending FlightAware ADS-B
Thu 04:55:50 PM 28.7792 -81.6376 105° East 304 350 6,900 -1,500 Descending FlightAware ADS-B
Thu 04:56:10 PM 28.7726 -81.6100 105° East 295 339 6,400 -1,500 Descending FlightAware ADS-B
Thu 04:56:30 PM 28.7651 -81.5779 105° East 293 337 5,900 -1,350 Descending FlightAware ADS-B
Thu 04:56:50 PM 28.7570 -81.5461 106° East 285 328 5,500 -1,350 Descending FlightAware ADS-B
Thu 04:57:10 PM 28.7504 -81.5206 106° East 285 328 5,000 -1,500 Descending FlightAware ADS-B
Thu 04:57:30 PM 28.7425 -81.4901 107° East 280 322 4,500 -1,350 Descending FlightAware ADS-B
Thu 04:57:50 PM 28.7351 -81.4625 107° East 276 318 4,100 -1,385 Descending FlightAware ADS-B
Thu 04:58:09 PM 28.7255 -81.4371 113° Southeast 270 311 3,600 -1,350 Descending FlightAware ADS-B
Thu 04:58:30 PM 28.7128 -81.4117 120° Southeast 269 310 3,200 -1,317 Descending FlightAware ADS-B
Thu 04:58:50 PM 28.6962 -81.3916 133° Southeast 261 300 2,700 -1,350 Descending FlightAware ADS-B
Thu 04:59:10 PM 28.6794 -81.3719 134° Southeast 252 290 2,300 -1,200 Descending FlightAware ADS-B
Thu 04:59:50 PM 28.6481 -81.3346 134° Southeast 238 274 1,500 -800 Descending FlightAware ADS-B
Thu 05:00:10 PM 28.6334 -81.3172 134° Southeast 218 251 1,500 -171 Level FlightAware ADS-B
Thu 05:00:25 PM 28.6233 -81.3052 134° Southeast 204 235 1,400  Descending FlightAware ADS-B
Thu 05:00:43 PM 28.6133 -81.2932 134° Southeast 190 219 1,500 182 Climbing FlightAware ADS-B (KSFB)
Thu 05:00:58 PM 28.6037 -81.2818 134° Southeast 169 194 1,500 -286 Level FlightAware ADS-B (KSFB)
Thu 05:01:04 PM 28.6007 -81.2783 135° Southeast 154 177 1,400 -500 Descending FlightAware ADS-B
Thu 05:01:10 PM 28.5976 -81.2756 143° Southeast 147 169 1,400 -353 Level FlightAware ADS-B
Thu 05:01:21 PM 28.5982 -81.2760 328° Northwest 135 155 1,300 -429 Descending FlightAware ADS-B (KSFB)
Thu 05:01:24 PM 28.5885 -81.2730 165° South 130 150 1,300 -300 Level FlightAware ADS-B
Thu 05:01:41 PM 28.5829 -81.2735 184° South 128 147 1,200 -486 Descending FlightAware ADS-B (KSFB)
Thu 05:02:01 PM 28.5680 -81.2795 200° South 124 143 1,000 -643 Descending FlightAware ADS-B (KSFB)
Thu 05:02:09 PM 28.5648 -81.2833 226° Southwest 117 135 900 -828 Descending FlightAware ADS-B
Thu 05:02:30 PM 28.5598 -81.2942 243° Southwest 116 133 600 -878 Descending FlightAware ADS-B
Thu 05:02:50 PM 28.5555 -81.3057 247° West 114 131 300 -769 Descending FlightAware ADS-B
Thu 05:03:09 PM 28.5515 -81.3164 247° West 117 135 100 -632 Descending FlightAware ADS-B
Thu 05:10:00 PM 28.5333 -81.3167 24° Northeast  Level FlightAware Approximate
Thu 05:11:00 PM 28.5455 -81.3329 24° Northeast  Level Estimated
Thu 05:12:00 PM 28.5455 -81.3329 24° Northeast  Level Estimated
Thu 05:13:00 PM 28.5455 -81.3329 24° Northeast  Level Estimated
Thu 05:14:00 PM 28.5455 -81.3329 24° Northeast  Level Estimated

Login

Don't have an account? Register now (free) for customized features, flight alerts, and more!